createdAt,value
2023-02-19T00:00:45.334Z,1000.76
2023-02-19T00:01:45.353Z,1000.69
2023-02-19T00:02:45.380Z,1000.72
2023-02-19T00:03:45.409Z,1000.76
2023-02-19T00:04:45.355Z,1000.59
2023-02-19T00:05:45.289Z,1000.61
2023-02-19T00:06:45.283Z,1000.60
2023-02-19T00:07:45.273Z,1000.61
2023-02-19T00:08:45.270Z,1000.53
2023-02-19T00:09:45.258Z,1000.52
2023-02-19T00:10:45.230Z,1000.56
2023-02-19T00:11:45.214Z,1000.54
2023-02-19T00:12:45.209Z,1000.46
2023-02-19T00:13:45.231Z,1000.48
2023-02-19T00:14:45.193Z,1000.41
2023-02-19T00:15:45.245Z,1000.37
2023-02-19T00:16:45.178Z,1000.37
2023-02-19T00:17:45.152Z,1000.45
2023-02-19T00:18:45.176Z,1000.38
2023-02-19T00:19:45.122Z,1000.41
2023-02-19T00:20:45.149Z,1000.39
2023-02-19T00:21:45.151Z,1000.45
2023-02-19T00:22:45.075Z,1000.46
2023-02-19T00:23:45.075Z,1000.54
2023-02-19T00:24:45.055Z,1000.52
2023-02-19T00:25:45.058Z,1000.54
2023-02-19T00:26:45.203Z,1000.50
2023-02-19T00:27:45.025Z,1000.44
2023-02-19T00:28:45.034Z,1000.47
2023-02-19T00:29:45.006Z,1000.43
2023-02-19T00:30:45.028Z,1000.46
2023-02-19T00:31:45.084Z,1000.52
2023-02-19T00:32:45.004Z,1000.53
2023-02-19T00:33:44.966Z,1000.51
2023-02-19T00:34:44.940Z,1000.52
2023-02-19T00:35:44.958Z,1000.57
2023-02-19T00:36:44.918Z,1000.38
2023-02-19T00:37:44.931Z,1000.48
2023-02-19T00:38:44.949Z,1000.45
2023-02-19T00:39:44.897Z,1000.35
2023-02-19T00:40:44.873Z,1000.34
2023-02-19T00:41:44.864Z,1000.37
2023-02-19T00:42:44.870Z,1000.36
2023-02-19T00:43:44.874Z,1000.23
2023-02-19T00:44:44.826Z,1000.35
2023-02-19T00:45:44.855Z,1000.26
2023-02-19T00:46:44.812Z,1000.28
2023-02-19T00:47:44.812Z,1000.25
2023-02-19T00:48:44.815Z,1000.27
2023-02-19T00:49:44.823Z,1000.26
2023-02-19T00:50:44.774Z,1000.31
2023-02-19T00:51:44.782Z,1000.30
2023-02-19T00:52:44.767Z,1000.28
2023-02-19T00:53:44.736Z,1000.28
2023-02-19T00:54:44.723Z,1000.19
2023-02-19T00:55:44.756Z,1000.27
2023-02-19T00:56:44.743Z,1000.36
2023-02-19T00:57:44.708Z,1000.16
2023-02-19T00:58:44.675Z,1000.22
2023-02-19T00:59:44.676Z,1000.20
2023-02-19T01:00:44.667Z,1000.21
2023-02-19T01:01:44.885Z,1000.16
2023-02-19T01:02:44.656Z,1000.19
2023-02-19T01:03:44.635Z,1000.23
2023-02-19T01:04:44.632Z,1000.15
2023-02-19T01:05:44.601Z,1000.16
2023-02-19T01:06:44.606Z,1000.20
2023-02-19T01:07:44.597Z,1000.24
2023-02-19T01:08:44.565Z,1000.16
2023-02-19T01:09:44.552Z,1000.08
2023-02-19T01:10:44.542Z,1000.06
2023-02-19T01:11:44.589Z,1000.20
2023-02-19T01:12:44.516Z,1000.13
2023-02-19T01:13:44.532Z,1000.20
2023-02-19T01:14:44.485Z,1000.20
2023-02-19T01:15:44.526Z,1000.22
2023-02-19T01:16:44.497Z,1000.16
2023-02-19T01:17:44.460Z,1000.12
2023-02-19T01:18:44.443Z,1000.15
2023-02-19T01:19:44.445Z,1000.12
2023-02-19T01:20:44.412Z,1000.16
2023-02-19T01:21:44.406Z,1000.18
2023-02-19T01:22:44.424Z,1000.18
2023-02-19T01:23:44.449Z,1000.09
2023-02-19T01:24:44.402Z,1000.09
2023-02-19T01:25:44.353Z,1000.05
2023-02-19T01:26:44.343Z,1000.18
2023-02-19T01:27:44.339Z,1000.05
2023-02-19T01:28:44.324Z,1000.14
2023-02-19T01:29:44.336Z,1000.12
2023-02-19T01:30:44.357Z,1000.14
2023-02-19T01:31:44.454Z,1000.15
2023-02-19T01:32:44.302Z,1000.12
2023-02-19T01:33:44.265Z,1000.07
2023-02-19T01:34:44.300Z,1000.06
2023-02-19T01:35:44.238Z,1000.11
2023-02-19T01:36:44.266Z,1000.07
2023-02-19T01:37:44.231Z,1000.06
2023-02-19T01:38:44.208Z,1000.11
2023-02-19T01:39:44.270Z,1000.10
2023-02-19T01:40:44.192Z,1000.04
2023-02-19T01:41:44.170Z,1000.01
2023-02-19T01:42:44.206Z,1000.02
2023-02-19T01:43:44.164Z,1000.01
2023-02-19T01:44:44.147Z,1000.01
2023-02-19T01:45:44.139Z,999.98
2023-02-19T01:46:44.140Z,1000.05
2023-02-19T01:47:44.119Z,999.99
2023-02-19T01:48:44.174Z,999.99
2023-02-19T01:49:44.110Z,1000.00
2023-02-19T01:50:44.129Z,999.99
2023-02-19T01:51:44.801Z,1000.00
2023-02-19T01:52:44.098Z,1000.02
2023-02-19T01:53:44.069Z,999.96
2023-02-19T01:54:44.126Z,999.97
2023-02-19T01:55:44.152Z,1000.04
2023-02-19T01:56:44.036Z,1000.03
2023-02-19T01:57:44.061Z,999.98
2023-02-19T01:58:44.102Z,1000.04
2023-02-19T01:59:44.084Z,1000.02
2023-02-19T02:00:44.770Z,999.97
2023-02-19T02:01:44.055Z,999.98
2023-02-19T02:02:43.939Z,999.97
2023-02-19T02:03:43.943Z,999.97
2023-02-19T02:04:43.927Z,999.96
2023-02-19T02:05:43.951Z,999.97
2023-02-19T02:06:43.912Z,999.85
2023-02-19T02:07:43.873Z,999.88
2023-02-19T02:08:43.863Z,999.88
2023-02-19T02:09:43.887Z,999.77
2023-02-19T02:10:43.848Z,999.84
2023-02-19T02:11:43.925Z,999.86
2023-02-19T02:12:43.850Z,999.80
2023-02-19T02:13:43.935Z,999.82
2023-02-19T02:14:43.807Z,999.91
2023-02-19T02:15:43.815Z,999.85
2023-02-19T02:16:43.780Z,999.86
2023-02-19T02:17:43.811Z,999.84
2023-02-19T02:18:43.757Z,999.83
2023-02-19T02:19:43.781Z,999.79
2023-02-19T02:20:43.819Z,999.74
2023-02-19T02:21:43.774Z,999.71
2023-02-19T02:22:43.717Z,999.69
2023-02-19T02:23:43.758Z,999.70
2023-02-19T02:24:43.692Z,999.73
2023-02-19T02:25:43.700Z,999.74
2023-02-19T02:26:43.669Z,999.70
2023-02-19T02:27:43.768Z,999.66
2023-02-19T02:28:43.660Z,999.69
2023-02-19T02:29:43.731Z,999.72
2023-02-19T02:30:43.652Z,999.71
2023-02-19T02:31:43.744Z,999.66
2023-02-19T02:32:43.621Z,999.74
2023-02-19T02:33:43.615Z,999.71
2023-02-19T02:34:43.701Z,999.69
2023-02-19T02:35:43.576Z,999.59
2023-02-19T02:36:43.593Z,999.56
2023-02-19T02:37:43.573Z,999.60
2023-02-19T02:38:43.540Z,999.67
2023-02-19T02:39:43.515Z,999.63
2023-02-19T02:40:43.537Z,999.64
2023-02-19T02:41:43.530Z,999.60
2023-02-19T02:42:43.487Z,999.76
2023-02-19T02:43:43.488Z,999.68
2023-02-19T02:44:43.463Z,999.63
2023-02-19T02:45:43.593Z,999.67
2023-02-19T02:46:43.563Z,999.67
2023-02-19T02:47:43.433Z,999.67
2023-02-19T02:48:43.422Z,999.70
2023-02-19T02:49:43.403Z,999.70
2023-02-19T02:50:43.406Z,999.76
2023-02-19T02:51:43.398Z,999.74
2023-02-19T02:52:43.434Z,999.67
2023-02-19T02:53:43.366Z,999.65
2023-02-19T02:54:43.374Z,999.63
2023-02-19T02:55:43.441Z,999.54
2023-02-19T02:56:43.331Z,999.54
2023-02-19T02:57:43.315Z,999.59
2023-02-19T02:58:43.360Z,999.50
2023-02-19T02:59:43.288Z,999.51
2023-02-19T03:00:43.335Z,999.51
2023-02-19T03:01:43.279Z,999.53
2023-02-19T03:02:43.295Z,999.47
2023-02-19T03:03:43.240Z,999.51
2023-02-19T03:04:43.267Z,999.56
2023-02-19T03:05:43.234Z,999.53
2023-02-19T03:06:43.223Z,999.57
2023-02-19T03:07:43.197Z,999.47
2023-02-19T03:08:43.195Z,999.49
2023-02-19T03:09:43.197Z,999.47
2023-02-19T03:10:43.198Z,999.49
2023-02-19T03:11:43.147Z,999.45
2023-02-19T03:12:43.137Z,999.49
2023-02-19T03:13:44.078Z,999.42
2023-02-19T03:14:43.131Z,999.42
2023-02-19T03:15:43.201Z,999.43
2023-02-19T03:16:43.198Z,999.48
2023-02-19T03:17:43.086Z,999.42
2023-02-19T03:18:43.107Z,999.40
2023-02-19T03:19:43.087Z,999.47
2023-02-19T03:20:43.113Z,999.46
2023-02-19T03:21:43.098Z,999.41
2023-02-19T03:22:43.068Z,999.40
2023-02-19T03:23:43.021Z,999.43
2023-02-19T03:24:43.013Z,999.39
2023-02-19T03:25:42.987Z,999.37
2023-02-19T03:26:43.019Z,999.40
2023-02-19T03:27:43.130Z,999.43
2023-02-19T03:28:42.976Z,999.42
2023-02-19T03:29:42.951Z,999.38
2023-02-19T03:30:42.942Z,999.42
2023-02-19T03:31:43.023Z,999.45
2023-02-19T03:32:42.929Z,999.37
2023-02-19T03:33:42.909Z,999.41
2023-02-19T03:34:42.911Z,999.44
2023-02-19T03:35:42.893Z,999.42
2023-02-19T03:36:42.858Z,999.43
2023-02-19T03:37:42.866Z,999.45
2023-02-19T03:38:42.904Z,999.44
2023-02-19T03:39:42.842Z,999.43
2023-02-19T03:40:42.833Z,999.47
2023-02-19T03:41:42.815Z,999.41
2023-02-19T03:42:42.803Z,999.43
2023-02-19T03:43:42.822Z,999.47
2023-02-19T03:44:42.798Z,999.48
2023-02-19T03:45:42.837Z,999.44
2023-02-19T03:46:42.758Z,999.48
2023-02-19T03:47:42.734Z,999.42
2023-02-19T03:48:42.730Z,999.41
2023-02-19T03:49:42.714Z,999.44
2023-02-19T03:50:42.738Z,999.43
2023-02-19T03:51:42.704Z,999.49
2023-02-19T03:52:42.689Z,999.47
2023-02-19T03:53:42.678Z,999.45
2023-02-19T03:54:42.668Z,999.50
2023-02-19T03:55:42.647Z,999.44
2023-02-19T03:56:42.656Z,999.46
2023-02-19T03:57:42.641Z,999.45
2023-02-19T03:58:42.615Z,999.49
2023-02-19T03:59:42.597Z,999.39
2023-02-19T04:00:42.604Z,999.38
2023-02-19T04:01:42.594Z,999.43
2023-02-19T04:02:42.599Z,999.47
2023-02-19T04:03:42.702Z,999.41
2023-02-19T04:04:42.588Z,999.44
2023-02-19T04:05:42.576Z,999.46
2023-02-19T04:06:42.517Z,999.47
2023-02-19T04:07:42.528Z,999.45
2023-02-19T04:08:42.557Z,999.53
2023-02-19T04:09:42.499Z,999.44
2023-02-19T04:10:42.488Z,999.50
2023-02-19T04:11:42.476Z,999.51
2023-02-19T04:12:42.469Z,999.51
2023-02-19T04:13:42.484Z,999.50
2023-02-19T04:14:42.459Z,999.57
2023-02-19T04:15:42.634Z,999.50
2023-02-19T04:16:42.444Z,999.51
2023-02-19T04:17:42.400Z,999.54
2023-02-19T04:18:42.451Z,999.54
2023-02-19T04:19:42.434Z,999.56
2023-02-19T04:20:42.419Z,999.57
2023-02-19T04:21:42.383Z,999.53
2023-02-19T04:22:42.358Z,999.57
2023-02-19T04:23:42.352Z,999.56
2023-02-19T04:24:42.349Z,999.60
2023-02-19T04:25:42.316Z,999.63
2023-02-19T04:26:42.331Z,999.59
2023-02-19T04:27:42.311Z,999.57
2023-02-19T04:28:42.280Z,999.58
2023-02-19T04:29:42.264Z,999.62
2023-02-19T04:30:42.307Z,999.64
2023-02-19T04:31:42.269Z,999.65
2023-02-19T04:32:42.276Z,999.70
2023-02-19T04:33:42.209Z,999.63
2023-02-19T04:34:42.224Z,999.60
2023-02-19T04:35:42.216Z,999.68
2023-02-19T04:36:42.183Z,999.68
2023-02-19T04:37:42.192Z,999.69
2023-02-19T04:38:42.199Z,999.67
2023-02-19T04:39:42.147Z,999.67
2023-02-19T04:40:42.143Z,999.69
2023-02-19T04:41:42.160Z,999.61
2023-02-19T04:42:42.109Z,999.65
2023-02-19T04:43:42.109Z,999.71
2023-02-19T04:44:42.123Z,999.82
2023-02-19T04:45:42.101Z,999.71
2023-02-19T04:46:43.141Z,999.77
2023-02-19T04:47:42.072Z,999.73
2023-02-19T04:48:42.052Z,999.72
2023-02-19T04:49:42.019Z,999.77
2023-02-19T04:50:42.069Z,999.79
2023-02-19T04:51:42.034Z,999.88
2023-02-19T04:52:41.988Z,999.81
2023-02-19T04:53:41.981Z,999.90
2023-02-19T04:54:41.968Z,999.92
2023-02-19T04:55:41.960Z,999.84
2023-02-19T04:56:41.971Z,999.77
2023-02-19T04:57:41.932Z,999.84
2023-02-19T04:58:41.930Z,999.89
2023-02-19T04:59:41.930Z,999.84
2023-02-19T05:00:41.903Z,999.89
2023-02-19T05:01:41.908Z,999.93
2023-02-19T05:02:41.923Z,999.92
2023-02-19T05:03:41.872Z,999.93
2023-02-19T05:04:41.939Z,999.98
2023-02-19T05:05:41.841Z,999.98
2023-02-19T05:06:41.841Z,999.90
2023-02-19T05:07:41.831Z,999.90
2023-02-19T05:08:41.857Z,999.91
2023-02-19T05:09:41.814Z,999.86
2023-02-19T05:10:41.794Z,999.89
2023-02-19T05:11:41.772Z,999.96
2023-02-19T05:12:41.770Z,999.97
2023-02-19T05:13:41.790Z,1000.00
2023-02-19T05:14:41.782Z,1000.02
2023-02-19T05:15:41.758Z,999.95
2023-02-19T05:16:41.749Z,1000.00
2023-02-19T05:17:41.746Z,999.98
2023-02-19T05:18:41.766Z,999.98
2023-02-19T05:19:41.693Z,1000.03
2023-02-19T05:20:41.742Z,1000.02
2023-02-19T05:21:41.686Z,999.97
2023-02-19T05:22:41.668Z,1000.05
2023-02-19T05:23:41.641Z,999.97
2023-02-19T05:24:41.632Z,1000.13
2023-02-19T05:25:41.642Z,1000.11
2023-02-19T05:26:43.410Z,1000.18
2023-02-19T05:27:41.604Z,1000.15
2023-02-19T05:28:41.588Z,1000.13
2023-02-19T05:29:41.585Z,1000.20
2023-02-19T05:30:41.565Z,1000.18
2023-02-19T05:31:41.648Z,1000.18
2023-02-19T05:32:41.558Z,1000.16
2023-02-19T05:33:41.546Z,1000.20
2023-02-19T05:34:41.528Z,1000.15
2023-02-19T05:35:41.526Z,1000.22
2023-02-19T05:36:41.490Z,1000.19
2023-02-19T05:37:41.476Z,1000.23
2023-02-19T05:38:41.526Z,1000.25
2023-02-19T05:39:41.466Z,1000.25
2023-02-19T05:40:41.462Z,1000.29
2023-02-19T05:41:41.443Z,1000.26
2023-02-19T05:42:41.438Z,1000.24
2023-02-19T05:43:41.453Z,1000.23
2023-02-19T05:44:41.430Z,1000.29
2023-02-19T05:45:41.415Z,1000.25
2023-02-19T05:46:41.494Z,1000.30
2023-02-19T05:47:41.379Z,1000.31
2023-02-19T05:48:41.368Z,1000.34
2023-02-19T05:49:41.387Z,1000.32
2023-02-19T05:50:41.362Z,1000.23
2023-02-19T05:51:41.344Z,1000.31
2023-02-19T05:52:41.304Z,1000.35
2023-02-19T05:53:41.305Z,1000.42
2023-02-19T05:54:41.295Z,1000.39
2023-02-19T05:55:41.288Z,1000.40
2023-02-19T05:56:41.296Z,1000.36
2023-02-19T05:57:43.406Z,1000.33
2023-02-19T05:58:41.238Z,1000.43
2023-02-19T05:59:41.233Z,1000.39
2023-02-19T06:00:41.236Z,1000.43
2023-02-19T06:01:41.205Z,1000.49
2023-02-19T06:02:41.367Z,1000.45
2023-02-19T06:03:41.249Z,1000.50
2023-02-19T06:04:41.175Z,1000.47
2023-02-19T06:05:41.163Z,1000.44
2023-02-19T06:06:41.162Z,1000.46
2023-02-19T06:07:41.143Z,1000.41
2023-02-19T06:08:41.165Z,1000.45
2023-02-19T06:09:41.116Z,1000.47
2023-02-19T06:10:41.119Z,1000.61
2023-02-19T06:11:41.099Z,1000.48
2023-02-19T06:12:41.094Z,1000.51
2023-02-19T06:13:41.066Z,1000.59
2023-02-19T06:14:41.105Z,1000.51
2023-02-19T06:15:41.044Z,1000.54
2023-02-19T06:16:41.047Z,1000.54
2023-02-19T06:17:41.026Z,1000.53
2023-02-19T06:18:41.023Z,1000.55
2023-02-19T06:19:41.004Z,1000.54
2023-02-19T06:20:41.009Z,1000.51
2023-02-19T06:21:40.973Z,1000.54
2023-02-19T06:22:40.993Z,1000.56
2023-02-19T06:23:40.963Z,1000.55
2023-02-19T06:24:40.954Z,1000.59
2023-02-19T06:25:40.938Z,1000.65
2023-02-19T06:26:40.954Z,1000.68
2023-02-19T06:27:40.909Z,1000.74
2023-02-19T06:28:40.913Z,1000.84
2023-02-19T06:29:40.882Z,1000.71
2023-02-19T06:30:40.891Z,1000.69
2023-02-19T06:31:40.961Z,1000.76
2023-02-19T06:32:40.919Z,1000.81
2023-02-19T06:33:40.850Z,1000.82
2023-02-19T06:34:40.839Z,1000.84
2023-02-19T06:35:40.820Z,1000.93
2023-02-19T06:36:40.851Z,1000.89
2023-02-19T06:37:40.803Z,1000.95
2023-02-19T06:38:40.852Z,1000.92
2023-02-19T06:39:40.772Z,1001.04
2023-02-19T06:40:40.763Z,1001.03
2023-02-19T06:41:40.742Z,1001.10
2023-02-19T06:42:40.758Z,1001.04
2023-02-19T06:43:40.734Z,1001.08
2023-02-19T06:44:40.775Z,1001.06
2023-02-19T06:45:40.707Z,1001.07
2023-02-19T06:46:40.712Z,1001.13
2023-02-19T06:47:40.683Z,1001.05
2023-02-19T06:48:40.686Z,1001.17
2023-02-19T06:49:40.653Z,1001.18
2023-02-19T06:50:40.674Z,1001.19
2023-02-19T06:51:40.673Z,1001.24
2023-02-19T06:52:40.641Z,1001.22
2023-02-19T06:53:40.638Z,1001.16
2023-02-19T06:54:40.595Z,1001.13
2023-02-19T06:55:40.608Z,1001.23
2023-02-19T06:56:40.626Z,1001.16
2023-02-19T06:57:40.672Z,1001.21
2023-02-19T06:58:40.598Z,1001.22
2023-02-19T06:59:40.559Z,1001.26
2023-02-19T07:00:40.568Z,1001.19
2023-02-19T07:01:40.556Z,1001.21
2023-02-19T07:02:40.559Z,1001.27
2023-02-19T07:03:40.499Z,1001.28
2023-02-19T07:04:40.495Z,1001.33
2023-02-19T07:05:40.499Z,1001.34
2023-02-19T07:06:40.488Z,1001.34
2023-02-19T07:07:40.451Z,1001.29
2023-02-19T07:08:40.463Z,1001.29
2023-02-19T07:09:40.413Z,1001.36
2023-02-19T07:10:40.423Z,1001.42
2023-02-19T07:11:40.439Z,1001.40
2023-02-19T07:12:40.408Z,1001.45
2023-02-19T07:13:40.384Z,1001.38
2023-02-19T07:14:40.404Z,1001.38
2023-02-19T07:15:40.365Z,1001.36
2023-02-19T07:16:40.421Z,1001.40
2023-02-19T07:17:40.325Z,1001.45
2023-02-19T07:18:40.440Z,1001.41
2023-02-19T07:19:40.323Z,1001.47
2023-02-19T07:20:40.326Z,1001.45
2023-02-19T07:21:40.326Z,1001.54
2023-02-19T07:22:40.276Z,1001.47
2023-02-19T07:23:40.273Z,1001.52
2023-02-19T07:24:40.254Z,1001.47
2023-02-19T07:25:40.253Z,1001.53
2023-02-19T07:26:40.243Z,1001.58
2023-02-19T07:27:40.217Z,1001.61
2023-02-19T07:28:40.243Z,1001.75
2023-02-19T07:29:40.212Z,1001.67
2023-02-19T07:30:40.206Z,1001.56
2023-02-19T07:31:40.287Z,1001.63
2023-02-19T07:32:40.185Z,1001.60
2023-02-19T07:33:40.170Z,1001.64
2023-02-19T07:34:40.155Z,1001.74
2023-02-19T07:35:40.154Z,1001.71
2023-02-19T07:36:40.153Z,1001.65
2023-02-19T07:37:40.193Z,1001.60
2023-02-19T07:38:40.188Z,1001.67
2023-02-19T07:39:40.082Z,1001.79
2023-02-19T07:40:41.034Z,1001.69
2023-02-19T07:41:40.143Z,1001.73
2023-02-19T07:42:40.061Z,1001.78
2023-02-19T07:43:40.069Z,1001.79
2023-02-19T07:44:40.157Z,1001.76
2023-02-19T07:45:40.137Z,1001.79
2023-02-19T07:46:40.159Z,1001.83
2023-02-19T07:47:40.101Z,1001.84
2023-02-19T07:48:40.096Z,1001.79
2023-02-19T07:49:40.030Z,1001.90
2023-02-19T07:50:40.028Z,1001.96
2023-02-19T07:51:40.061Z,1001.91
2023-02-19T07:52:40.153Z,1001.91
2023-02-19T07:53:40.106Z,1001.95
2023-02-19T07:54:40.030Z,1002.01
2023-02-19T07:55:40.089Z,1002.06
2023-02-19T07:56:39.967Z,1002.02
2023-02-19T07:57:39.894Z,1002.01
2023-02-19T07:58:39.890Z,1002.03
2023-02-19T07:59:39.920Z,1002.03
2023-02-19T08:00:40.092Z,1002.05
2023-02-19T08:01:39.882Z,1002.09
2023-02-19T08:02:39.861Z,1002.03
2023-02-19T08:03:39.862Z,1002.03
2023-02-19T08:04:39.822Z,1002.08
2023-02-19T08:05:39.784Z,1002.10
2023-02-19T08:06:39.807Z,1002.12
2023-02-19T08:07:39.802Z,1002.17
2023-02-19T08:08:39.823Z,1002.18
2023-02-19T08:09:39.736Z,1002.21
2023-02-19T08:10:39.727Z,1002.20
2023-02-19T08:11:39.728Z,1002.27
2023-02-19T08:12:39.738Z,1002.29
2023-02-19T08:13:39.697Z,1002.33
2023-02-19T08:14:39.686Z,1002.26
2023-02-19T08:15:39.672Z,1002.39
2023-02-19T08:16:43.345Z,1002.34
2023-02-19T08:17:39.704Z,1002.42
2023-02-19T08:18:39.667Z,1002.35
2023-02-19T08:19:39.673Z,1002.37
2023-02-19T08:20:39.626Z,1002.46
2023-02-19T08:21:39.617Z,1002.46
2023-02-19T08:22:39.655Z,1002.44
2023-02-19T08:23:39.734Z,1002.50
2023-02-19T08:24:39.588Z,1002.50
2023-02-19T08:25:39.562Z,1002.47
2023-02-19T08:26:39.545Z,1002.49
2023-02-19T08:27:39.541Z,1002.56
2023-02-19T08:28:39.528Z,1002.55
2023-02-19T08:29:39.560Z,1002.53
2023-02-19T08:30:39.671Z,1002.55
2023-02-19T08:31:39.627Z,1002.58
2023-02-19T08:32:39.548Z,1002.60
2023-02-19T08:33:39.474Z,1002.56
2023-02-19T08:34:39.452Z,1002.59
2023-02-19T08:35:39.478Z,1002.61
2023-02-19T08:36:39.431Z,1002.62
2023-02-19T08:37:39.461Z,1002.74
2023-02-19T08:38:39.421Z,1002.69
2023-02-19T08:39:39.424Z,1002.71
2023-02-19T08:40:39.393Z,1002.73
2023-02-19T08:41:39.420Z,1002.67
2023-02-19T08:42:39.419Z,1002.79
2023-02-19T08:43:39.382Z,1002.76
2023-02-19T08:44:39.332Z,1002.81
2023-02-19T08:45:39.342Z,1002.73
2023-02-19T08:46:39.313Z,1002.78
2023-02-19T08:47:39.347Z,1002.77
2023-02-19T08:48:39.346Z,1002.66
2023-02-19T08:49:39.290Z,1002.69
2023-02-19T08:50:39.279Z,1002.66
2023-02-19T08:51:39.255Z,1002.75
2023-02-19T08:52:39.375Z,1002.77
2023-02-19T08:53:39.242Z,1002.82
2023-02-19T08:54:39.247Z,1002.89
2023-02-19T08:55:39.248Z,1002.95
2023-02-19T08:56:39.219Z,1002.85
2023-02-19T08:57:39.198Z,1002.91
2023-02-19T08:58:39.216Z,1002.98
2023-02-19T08:59:39.207Z,1002.91
2023-02-19T09:00:39.165Z,1002.92
2023-02-19T09:01:39.175Z,1002.89
2023-02-19T09:02:39.146Z,1002.91
2023-02-19T09:03:39.149Z,1002.94
2023-02-19T09:04:39.136Z,1002.88
2023-02-19T09:05:39.099Z,1002.93
2023-02-19T09:06:40.107Z,1002.96
2023-02-19T09:07:39.090Z,1002.92
2023-02-19T09:08:39.077Z,1002.91
2023-02-19T09:09:39.088Z,1002.91
2023-02-19T09:10:39.253Z,1002.87
2023-02-19T09:11:39.042Z,1002.86
2023-02-19T09:12:39.034Z,1002.94
2023-02-19T09:13:39.033Z,1003.07
2023-02-19T09:14:39.001Z,1002.96
2023-02-19T09:15:39.030Z,1002.97
2023-02-19T09:16:38.987Z,1003.15
2023-02-19T09:17:39.099Z,1003.15
2023-02-19T09:18:38.950Z,1003.00
2023-02-19T09:19:38.960Z,1003.08
2023-02-19T09:20:38.930Z,1003.03
2023-02-19T09:21:38.934Z,1003.04
2023-02-19T09:22:38.938Z,1003.03
2023-02-19T09:23:38.905Z,1002.96
2023-02-19T09:24:38.954Z,1002.95
2023-02-19T09:25:38.865Z,1002.93
2023-02-19T09:26:38.865Z,1003.00
2023-02-19T09:27:38.881Z,1003.00
2023-02-19T09:28:38.837Z,1003.04
2023-02-19T09:29:38.829Z,1003.03
2023-02-19T09:30:38.823Z,1002.97
2023-02-19T09:31:38.921Z,1003.07
2023-02-19T09:32:39.189Z,1003.03
2023-02-19T09:33:38.799Z,1003.06
2023-02-19T09:34:38.779Z,1003.09
2023-02-19T09:35:38.765Z,1002.97
2023-02-19T09:36:38.742Z,1002.99
2023-02-19T09:37:38.743Z,1003.05
2023-02-19T09:38:38.729Z,1003.05
2023-02-19T09:39:38.731Z,1003.02
2023-02-19T09:40:38.704Z,1003.02
2023-02-19T09:41:38.702Z,1002.98
2023-02-19T09:42:38.692Z,1003.00
2023-02-19T09:43:38.675Z,1002.99
2023-02-19T09:44:38.650Z,1003.02
2023-02-19T09:45:38.682Z,1003.00
2023-02-19T09:46:38.631Z,1003.03
2023-02-19T09:47:38.620Z,1002.99
2023-02-19T09:48:38.620Z,1003.06
2023-02-19T09:49:38.700Z,1003.03
2023-02-19T09:50:38.591Z,1003.06
2023-02-19T09:51:38.602Z,1003.11
2023-02-19T09:52:38.591Z,1003.15
2023-02-19T09:53:38.559Z,1003.22
2023-02-19T09:54:38.573Z,1003.16
2023-02-19T09:55:38.522Z,1003.16
2023-02-19T09:56:38.582Z,1003.24
2023-02-19T09:57:38.515Z,1003.24
2023-02-19T09:58:38.491Z,1003.21
2023-02-19T09:59:38.480Z,1003.23
2023-02-19T10:00:38.470Z,1003.32
2023-02-19T10:01:38.513Z,1003.29
2023-02-19T10:02:38.470Z,1003.41
2023-02-19T10:03:38.453Z,1003.45
2023-02-19T10:04:38.432Z,1003.46
2023-02-19T10:05:38.424Z,1003.50
2023-02-19T10:06:38.441Z,1003.58
2023-02-19T10:07:38.390Z,1003.62
2023-02-19T10:08:38.456Z,1003.62
2023-02-19T10:09:38.378Z,1003.67
2023-02-19T10:10:38.390Z,1003.62
2023-02-19T10:11:38.345Z,1003.65
2023-02-19T10:12:38.344Z,1003.65
2023-02-19T10:13:38.342Z,1003.62
2023-02-19T10:14:38.709Z,1003.69
2023-02-19T10:15:38.310Z,1003.59
2023-02-19T10:16:38.293Z,1003.61
2023-02-19T10:17:38.285Z,1003.62
2023-02-19T10:18:38.273Z,1003.56
2023-02-19T10:19:38.255Z,1003.54
2023-02-19T10:20:38.264Z,1003.50
2023-02-19T10:21:38.273Z,1003.57
2023-02-19T10:22:38.249Z,1003.40
2023-02-19T10:23:38.204Z,1003.53
2023-02-19T10:24:38.589Z,1003.58
2023-02-19T10:25:38.226Z,1003.61
2023-02-19T10:26:38.195Z,1003.59
2023-02-19T10:27:38.172Z,1003.69
2023-02-19T10:28:38.258Z,1003.66
2023-02-19T10:29:38.151Z,1003.73
2023-02-19T10:30:38.153Z,1003.73
2023-02-19T10:31:38.251Z,1003.78
2023-02-19T10:32:38.186Z,1003.67
2023-02-19T10:33:38.107Z,1003.73
2023-02-19T10:34:38.086Z,1003.82
2023-02-19T10:35:38.087Z,1003.84
2023-02-19T10:36:38.110Z,1003.82
2023-02-19T10:37:38.046Z,1003.89
2023-02-19T10:38:38.028Z,1003.88
2023-02-19T10:39:38.038Z,1003.88
2023-02-19T10:40:38.032Z,1003.94
2023-02-19T10:41:38.015Z,1004.05
2023-02-19T10:42:38.008Z,1004.08
2023-02-19T10:43:37.978Z,1004.10
2023-02-19T10:44:37.987Z,1004.09
2023-02-19T10:45:37.961Z,1004.15
2023-02-19T10:46:37.967Z,1004.10
2023-02-19T10:47:37.939Z,1004.21
2023-02-19T10:48:37.940Z,1004.12
2023-02-19T10:49:37.927Z,1004.18
2023-02-19T10:50:37.926Z,1004.15
2023-02-19T10:51:37.984Z,1004.20
2023-02-19T10:52:37.873Z,1004.17
2023-02-19T10:53:37.932Z,1004.19
2023-02-19T10:54:37.848Z,1004.20
2023-02-19T10:55:38.088Z,1004.22
2023-02-19T10:56:37.856Z,1004.29
2023-02-19T10:57:37.853Z,1004.24
2023-02-19T10:58:37.822Z,1004.32
2023-02-19T10:59:37.841Z,1004.31
2023-02-19T11:00:37.782Z,1004.32
2023-02-19T11:01:37.808Z,1004.25
2023-02-19T11:02:37.777Z,1004.26
2023-02-19T11:03:37.733Z,1004.38
2023-02-19T11:04:37.763Z,1004.38
2023-02-19T11:05:37.751Z,1004.33
2023-02-19T11:06:37.732Z,1004.37
2023-02-19T11:07:37.735Z,1004.35
2023-02-19T11:08:37.726Z,1004.26
2023-02-19T11:09:37.684Z,1004.42
2023-02-19T11:10:37.674Z,1004.37
2023-02-19T11:11:37.699Z,1004.35
2023-02-19T11:12:37.721Z,1004.36
2023-02-19T11:13:37.652Z,1004.37
2023-02-19T11:14:38.561Z,1004.33
2023-02-19T11:15:37.625Z,1004.38
2023-02-19T11:16:37.605Z,1004.41
2023-02-19T11:17:37.633Z,1004.47
2023-02-19T11:18:37.593Z,1004.49
2023-02-19T11:19:37.582Z,1004.42
2023-02-19T11:20:37.544Z,1004.45
2023-02-19T11:21:37.536Z,1004.56
2023-02-19T11:22:37.523Z,1004.64
2023-02-19T11:23:37.527Z,1004.54
2023-02-19T11:24:37.575Z,1004.52
2023-02-19T11:25:37.504Z,1004.49
2023-02-19T11:26:37.487Z,1004.52
2023-02-19T11:27:37.466Z,1004.46
2023-02-19T11:28:37.548Z,1004.49
2023-02-19T11:29:37.458Z,1004.48
2023-02-19T11:30:37.509Z,1004.42
2023-02-19T11:31:37.544Z,1004.43
2023-02-19T11:32:37.440Z,1004.46
2023-02-19T11:33:37.414Z,1004.50
2023-02-19T11:34:37.439Z,1004.46
2023-02-19T11:35:37.464Z,1004.47
2023-02-19T11:36:37.407Z,1004.59
2023-02-19T11:37:37.418Z,1004.56
2023-02-19T11:38:37.384Z,1004.54
2023-02-19T11:39:37.357Z,1004.49
2023-02-19T11:40:37.366Z,1004.53
2023-02-19T11:41:37.321Z,1004.44
2023-02-19T11:42:37.584Z,1004.42
2023-02-19T11:43:37.588Z,1004.40
2023-02-19T11:44:37.316Z,1004.44
2023-02-19T11:45:37.276Z,1004.39
2023-02-19T11:46:37.343Z,1004.42
2023-02-19T11:47:37.263Z,1004.44
2023-02-19T11:48:37.252Z,1004.43
2023-02-19T11:49:37.225Z,1004.44
2023-02-19T11:50:37.215Z,1004.43
2023-02-19T11:51:37.213Z,1004.40
2023-02-19T11:52:37.245Z,1004.40
2023-02-19T11:53:37.288Z,1004.38
2023-02-19T11:54:37.172Z,1004.35
2023-02-19T11:55:37.189Z,1004.45
2023-02-19T11:56:37.216Z,1004.35
2023-02-19T11:57:37.176Z,1004.41
2023-02-19T11:58:37.218Z,1004.36
2023-02-19T11:59:37.122Z,1004.42
2023-02-19T12:00:37.126Z,1004.44
2023-02-19T12:01:37.117Z,1004.36
2023-02-19T12:02:37.083Z,1004.33
2023-02-19T12:03:37.098Z,1004.29
2023-02-19T12:04:37.921Z,1004.39
2023-02-19T12:05:37.086Z,1004.37
2023-02-19T12:06:37.015Z,1004.42
2023-02-19T12:07:37.048Z,1004.42
2023-02-19T12:08:37.020Z,1004.47
2023-02-19T12:09:37.650Z,1004.48
2023-02-19T12:10:37.004Z,1004.49
2023-02-19T12:11:36.992Z,1004.43
2023-02-19T12:12:37.994Z,1004.41